Flight Track Log - Related Links

Times and Time Zones

All times are in EDT time to prevent confusion due to time zone crossing. See the UAL1402 flight status page for this flight to view local times or setup timezone preferences in your user account.

Time Position Orientation Groundspeed Altitude Reporting Facility
EDT Latitude Longitude Course Direction KTS MPH feet Rate Location/Type
Thu 08:43:40 PM 33.9336 -118.4397 96° East 169 194 1,900  Level Los Angeles Center
Thu 08:44:42 PM 33.8928 -118.5103 235° Southwest 235 270 4,400 2,758 Climbing Los Angeles Center
Thu 08:45:44 PM 33.8317 -118.5564 212° Southwest 271 312 7,600 2,928 Climbing Los Angeles Center
Thu 08:46:00 PM 33.8997 -117.8486 95° East  Level Estimated
Thu 08:46:47 PM 33.7578 -118.5369 168° South 273 314 10,500  Level Los Angeles Center
Thu 08:47:00 PM 33.8886 -117.7089 95° East  Level Estimated
Thu 08:47:49 PM 33.6861 -118.4856 149° Southeast 332 382 12,900  Level Los Angeles Center
Thu 08:48:00 PM 33.8773 -117.5692 96° East  Level Estimated
Thu 08:48:51 PM 33.6489 -118.3581 109° East 339 390 16,400  Level Los Angeles Center
Thu 08:49:00 PM 33.8659 -117.4295 96° East  Level Estimated
Thu 08:49:53 PM 33.6436 -118.2400 93° East 362 417 18,800  Level Los Angeles Center
Thu 08:50:55 PM 33.6444 -118.1050 90° East 408 470 19,900 1,548 Climbing Los Angeles Center
Thu 08:51:57 PM 33.6447 -117.9597 90° East 436 502 22,000 2,032 Climbing Los Angeles Center
Thu 08:52:59 PM 33.6436 -117.8114 90° East 442 509 24,100 1,887 Climbing Los Angeles Center
Thu 08:54:01 PM 33.6428 -117.6283 90° East 459 528 25,900 1,440 Climbing Los Angeles Center
Thu 08:55:04 PM 33.6331 -117.4706 94° East 476 548 27,100 1,392 Climbing Los Angeles Center
Thu 08:56:06 PM 33.6139 -117.3100 98° East 483 556 28,800 1,742 Climbing Los Angeles Center
Thu 08:57:08 PM 33.5944 -117.1492 98° East 487 560 30,700 1,790 Climbing Los Angeles Center
Thu 08:58:10 PM 33.5733 -116.9808 99° East 482 555 32,500 1,742 Climbing Los Angeles Center
Thu 08:59:12 PM 33.5542 -116.8219 98° East 483 556 34,300 1,452 Climbing Los Angeles Center
Thu 09:00:14 PM 33.5356 -116.6653 98° East 475 547 35,500 1,210 Climbing Los Angeles Center
Thu 09:01:16 PM 33.5156 -116.5092 99° East 474 545 36,800 1,104 Climbing Los Angeles Center
Thu 09:02:19 PM 33.4931 -116.3244 98° East 470 541 37,800 768 Climbing Los Angeles Center
Thu 09:03:21 PM 33.4736 -116.1653 98° East 472 543 38,400 581 Climbing Los Angeles Center
Thu 09:04:23 PM 33.4525 -116.0064 99° East 479 551 39,000 290 Climbing Los Angeles Center
Thu 09:05:25 PM 33.4325 -115.8456 98° East 484 557 39,000  Level Los Angeles Center
Thu 09:06:27 PM 33.4103 -115.6878 100° East 481 554 39,000  Level Los Angeles Center
Thu 09:07:29 PM 33.3894 -115.5294 99° East 480 552 39,000  Level Los Angeles Center
Thu 09:08:31 PM 33.3639 -115.3392 99° East 482 555 39,000  Level Los Angeles Center
Thu 09:09:33 PM 33.3436 -115.1808 99° East 482 555 39,000  Level Los Angeles Center
Thu 09:10:36 PM 33.3222 -115.0222 99° East 482 555 39,000  Level Los Angeles Center
Thu 09:11:38 PM 33.3000 -114.8611 99° East 495 570 39,000  Level Los Angeles Center
Thu 09:12:40 PM 33.2800 -114.7017 98° East 490 564 39,000  Level Los Angeles Center
Thu 09:13:42 PM 33.2581 -114.5417 99° East 490 564 39,000  Level Los Angeles Center
Thu 09:14:44 PM 33.2300 -114.3483 100° East 500 575 39,000  Level Los Angeles Center
Thu 09:15:46 PM 33.2086 -114.1881 99° East 494 568 39,000  Level Los Angeles Center
Thu 09:16:48 PM 33.1850 -114.0269 100° East 495 570 39,000  Level Los Angeles Center
Thu 09:17:50 PM 33.1633 -113.8653 99° East 495 570 39,000  Level Los Angeles Center
Thu 09:18:53 PM 33.1394 -113.7036 100° East 497 572 39,000  Level Los Angeles Center
Thu 09:19:55 PM 33.1147 -113.5417 100° East 500 575 39,000  Level Los Angeles Center
Thu 09:20:57 PM 33.0875 -113.3497 100° East 500 575 39,000  Level Los Angeles Center
Thu 09:21:59 PM 33.0633 -113.1867 100° East 500 575 39,000  Level Los Angeles Center
Thu 09:23:01 PM 33.0375 -113.0208 100° East 505 581 39,000  Level Los Angeles Center
Thu 09:24:13 PM 33.0081 -112.8242 100° East 498 573 39,000  Level Albuquerque Center
Thu 09:25:15 PM 32.9819 -112.6597 101° East 499 574 39,000  Level Albuquerque Center
Thu 09:26:16 PM 32.9558 -112.4956 101° East 500 575 39,000  Level Albuquerque Center
Thu 09:27:18 PM 32.9300 -112.3303 101° East 502 578 39,000  Level Albuquerque Center
Thu 09:28:20 PM 32.9022 -112.1519 100° East 507 583 39,000  Level Albuquerque Center
Thu 09:29:21 PM 32.8764 -111.9892 101° East 507 583 39,000  Level Albuquerque Center
Thu 09:30:23 PM 32.8494 -111.8239 101° East 508 585 39,000  Level Albuquerque Center
Thu 09:31:25 PM 32.8233 -111.6589 101° East 509 586 39,000  Level Albuquerque Center
Thu 09:32:26 PM 32.7906 -111.4606 101° East 510 587 39,000  Level Albuquerque Center
Thu 09:33:28 PM 32.7625 -111.2964 101° East 510 587 39,000  Level Albuquerque Center
Thu 09:34:29 PM 32.7347 -111.1308 101° East 513 590 39,000  Level Albuquerque Center
Thu 09:35:31 PM 32.7067 -110.9636 101° East 514 592 39,000  Level Albuquerque Center
Thu 09:36:33 PM 32.6789 -110.7983 101° East 514 592 39,000  Level Albuquerque Center
Thu 09:37:34 PM 32.6492 -110.6314 102° East 514 592 39,000  Level Albuquerque Center
Thu 09:38:36 PM 32.6208 -110.4656 101° East 515 593 39,000  Level Albuquerque Center
Thu 09:39:37 PM 32.5903 -110.2892 102° East 515 593 39,000  Level Albuquerque Center
Thu 09:40:39 PM 32.5603 -110.1236 102° East 515 593 39,000  Level Albuquerque Center
Thu 09:41:41 PM 32.5253 -109.9256 102° East 515 593 39,000  Level Albuquerque Center
Thu 09:42:42 PM 32.4958 -109.7617 102° East 515 593 39,000  Level Albuquerque Center
Thu 09:43:44 PM 32.4642 -109.5958 103° East 515 593 39,000  Level Albuquerque Center
Thu 09:44:45 PM 32.4347 -109.4325 102° East 515 593 39,000  Level Albuquerque Center
Thu 09:45:47 PM 32.4044 -109.2694 102° East 513 590 39,000  Level Albuquerque Center
Thu 09:46:48 PM 32.3750 -109.1067 102° East 513 590 39,000  Level Albuquerque Center
Thu 09:47:50 PM 32.3378 -108.9114 103° East 513 590 39,000  Level Albuquerque Center
Thu 09:48:52 PM 32.3069 -108.7467 102° East 513 590 39,000  Level Albuquerque Center
Thu 09:49:53 PM 32.2761 -108.5833 103° East 513 590 39,000  Level Albuquerque Center
Thu 09:50:55 PM 32.2436 -108.4114 103° East 513 590 39,000  Level Albuquerque Center
Thu 09:51:56 PM 32.2122 -108.2456 103° East 516 594 39,000  Level Albuquerque Center
Thu 09:52:58 PM 32.1803 -108.0803 103° East 516 594 39,000  Level Albuquerque Center
Thu 09:53:59 PM 32.1472 -107.9144 103° East 517 595 39,000  Level Albuquerque Center
Thu 09:55:01 PM 32.1147 -107.7486 103° East 521 600 39,000  Level Albuquerque Center
Thu 09:56:02 PM 32.0822 -107.5831 103° East 521 600 39,000  Level Albuquerque Center
Thu 09:57:04 PM 32.0428 -107.3861 103° East 521 600 39,000  Level Albuquerque Center
Thu 09:58:05 PM 32.0103 -107.2214 103° East 521 600 39,000  Level Albuquerque Center
Thu 09:59:07 PM 31.9781 -107.0572 103° East 521 600 39,000  Level Albuquerque Center
Thu 10:00:08 PM 31.9450 -106.8931 103° East 521 600 39,000  Level Albuquerque Center
Thu 10:01:10 PM 31.9106 -106.7314 104° East 518 596 39,000  Level Albuquerque Center
Thu 10:02:11 PM 31.8761 -106.5694 104° East 517 595 39,000  Level Albuquerque Center
Thu 10:03:14 PM 31.8361 -106.3706 103° East 517 595 39,000  Level Albuquerque Center
Thu 10:04:14 PM 31.8014 -106.2097 104° East 512 589 39,000  Level Albuquerque Center
Thu 10:05:16 PM 31.7583 -106.0528 108° East 507 583 39,000  Level Albuquerque Center
Thu 10:06:17 PM 31.7183 -105.8950 107° East 507 583 39,000  Level Albuquerque Center
Thu 10:07:18 PM 31.6775 -105.7328 106° East 506 582 39,000  Level Albuquerque Center
Thu 10:08:20 PM 31.6386 -105.5800 107° East 505 581 39,000  Level Albuquerque Center
Thu 10:09:21 PM 31.6003 -105.4231 106° East 502 578 39,000  Level Albuquerque Center
Thu 10:10:24 PM 31.5597 -105.2644 107° East 503 579 39,000  Level Albuquerque Center
Thu 10:11:25 PM 31.5192 -105.1061 107° East 502 578 39,000  Level Albuquerque Center
Thu 10:12:26 PM 31.4794 -104.9464 106° East 504 580 39,000  Level Albuquerque Center
Thu 10:13:28 PM 31.4289 -104.7542 107° East 508 585 39,000  Level Albuquerque Center
Thu 10:14:29 PM 31.3886 -104.5958 107° East 507 583 39,000  Level Albuquerque Center
Thu 10:15:31 PM 31.3469 -104.4358 107° East 508 585 39,000  Level Albuquerque Center
Thu 10:16:32 PM 31.3053 -104.2778 107° East 509 586 39,000  Level Albuquerque Center
Thu 10:17:34 PM 31.2631 -104.1189 107° East 509 586 39,000  Level Albuquerque Center
Thu 10:18:35 PM 31.2194 -103.9608 108° East 509 586 39,000  Level Albuquerque Center
Thu 10:19:37 PM 31.1781 -103.8031 107° East 509 586 39,000  Level Albuquerque Center
Thu 10:20:38 PM 31.1306 -103.6364 108° East 509 586 39,000  Level Albuquerque Center
Thu 10:21:39 PM 31.0875 -103.4792 108° East 511 588 39,000  Level Albuquerque Center
Thu 10:22:41 PM 31.0442 -103.3225 108° East 511 588 39,000  Level Albuquerque Center
Thu 10:23:42 PM 31.0022 -103.1672 107° East 510 587 39,000  Level Albuquerque Center
Thu 10:24:44 PM 30.9528 -102.9839 107° East 502 578 39,000  Level Albuquerque Center
Thu 10:25:45 PM 30.9119 -102.8278 107° East 502 578 39,000  Level Albuquerque Center
Thu 10:26:47 PM 30.8722 -102.6708 106° East 503 579 39,000  Level Albuquerque Center
Thu 10:27:48 PM 30.8325 -102.5169 107° East 503 579 39,000  Level Albuquerque Center
Thu 10:28:50 PM 30.7919 -102.3617 107° East 504 580 39,000  Level Albuquerque Center
Thu 10:29:51 PM 30.7506 -102.2061 107° East 504 580 39,000  Level Albuquerque Center
Thu 10:30:26 PM 30.7278 -102.1131 106° East 507 583 39,000  Level Houston Center
Thu 10:31:27 PM 30.6867 -101.9575 107° East 508 585 39,000  Level Houston Center
Thu 10:32:28 PM 30.6361 -101.7703 107° East 508 585 39,000  Level Houston Center
Thu 10:33:29 PM 30.5942 -101.6133 107° East 509 586 39,000  Level Houston Center
Thu 10:34:31 PM 30.5503 -101.4528 108° East 510 587 39,000  Level Houston Center
Thu 10:35:32 PM 30.5078 -101.2944 107° East 511 588 39,000  Level Houston Center
Thu 10:36:33 PM 30.4650 -101.1367 107° East 512 589 39,000  Level Houston Center
Thu 10:37:34 PM 30.4222 -100.9792 107° East 512 589 39,000  Level Houston Center
Thu 10:38:36 PM 30.3781 -100.8217 108° East 513 590 39,000  Level Houston Center
Thu 10:39:37 PM 30.3350 -100.6650 108° East 512 589 39,000  Level Houston Center
Thu 10:40:38 PM 30.2911 -100.5081 108° East 512 589 39,000  Level Houston Center
Thu 10:41:39 PM 30.2475 -100.3494 108° East 512 589 39,000  Level Houston Center
Thu 10:42:40 PM 30.2028 -100.1892 108° East 512 589 39,000  Level Houston Center
Thu 10:43:42 PM 30.1575 -100.0292 108° East 512 589 39,000  Level Houston Center
Thu 10:44:43 PM 30.1117 -99.8708 108° East 514 592 39,000  Level Houston Center
Thu 10:45:44 PM 30.0672 -99.7136 108° East 514 592 39,000  Level Houston Center
Thu 10:46:45 PM 30.0222 -99.5567 108° East 514 592 39,000 -344 Level Houston Center
Thu 10:47:46 PM 29.9669 -99.3686 109° East 516 594 38,300 -934 Descending Houston Center
Thu 10:48:47 PM 29.9222 -99.2125 108° East 513 590 37,100 -1,122 Descending Houston Center
Thu 10:49:49 PM 29.8650 -99.0539 113° Southeast 513 590 36,000 -1,024 Descending Houston Center
Thu 10:50:50 PM 29.8089 -98.9044 113° Southeast 511 588 35,000 -492 Descending Houston Center
Thu 10:51:51 PM 29.7547 -98.7581 113° Southeast 503 579 35,000  Level Houston Center
Thu 10:52:52 PM 29.6956 -98.5992 113° Southeast 502 578 35,000  Level Houston Center
Thu 10:53:53 PM 29.6525 -98.4553 109° East 519 597 35,000  Level Houston Center
Thu 10:54:54 PM 29.6475 -98.2775 92° East 516 594 35,000  Level Houston Center
Thu 10:55:55 PM 29.6483 -98.1139 90° East 513 590 35,000  Level Houston Center
Thu 10:56:56 PM 29.6381 -97.9492 94° East 514 592 35,000  Level Houston Center
Thu 10:57:57 PM 29.6311 -97.8081 93° East 518 596 35,000 -98 Level Houston Center
Thu 10:58:58 PM 29.6217 -97.6089 93° East 519 597 34,800 -1,328 Descending Houston Center
Thu 10:59:59 PM 29.6136 -97.4425 93° East 520 598 32,300 -2,878 Descending Houston Center
Thu 11:01:01 PM 29.6061 -97.2789 93° East 517 595 28,900 -3,463 Descending Houston Center
Thu 11:02:02 PM 29.5978 -97.1133 93° East 517 595 25,200 -3,344 Descending Houston Center
Thu 11:03:03 PM 29.5897 -96.9508 93° East 507 583 22,100 -2,951 Descending Houston Center
Thu 11:04:04 PM 29.5817 -96.7942 93° East 488 562 19,200 -2,754 Descending Houston Center
Thu 11:05:05 PM 29.5731 -96.6456 94° East 467 537 16,500 -2,656 Descending Houston Center
Thu 11:06:06 PM 29.5653 -96.5069 94° East 439 505 13,800 -2,607 Descending Houston Center
Thu 11:07:07 PM 29.5572 -96.3725 94° East 424 488 11,200 -2,176 Descending Houston Center
Thu 11:07:37 PM 29.5531 -96.3050 94° East 411 473 10,500 -1,180 Descending Houston Center
Thu 11:08:08 PM 29.5503 -96.2472 93° East 395 455 10,000 -545 Descending Houston Center
Thu 11:08:32 PM 29.5475 -96.1881 93° East 382 440 10,000  Level Houston Center
Thu 11:09:09 PM 29.5664 -96.1261 71° East 392 451 10,000  Level Houston Center
Thu 11:09:33 PM 29.5903 -96.0775 61° Northeast 392 451 10,000 -98 Level Houston Center
Thu 11:10:10 PM 29.6197 -96.0214 59° Northeast 386 444 9,900  Descending Houston Center
Thu 11:10:28 PM 29.6408 -95.9806 59° Northeast 351 404 10,000 98 Climbing Houston Center
Thu 11:11:11 PM 29.6703 -95.9200 61° Northeast 360 414 10,000  Level Houston Center
Thu 11:11:34 PM 29.6942 -95.8711 61° Northeast 358 412 10,000  Level Houston Center
Thu 11:12:12 PM 29.7197 -95.8214 59° Northeast 359 413 10,000  Level Houston Center
Thu 11:12:35 PM 29.7444 -95.7739 59° Northeast 353 406 10,000  Level Houston Center
Thu 11:13:13 PM 29.7686 -95.7233 61° Northeast 355 409 10,000 -98 Level Houston Center
Thu 11:13:36 PM 29.7903 -95.6772 62° Northeast 332 382 9,900 -885 Descending Houston Center
Thu 11:14:14 PM 29.8139 -95.6350 57° Northeast 315 362 9,100 -1,612 Descending Houston Center
Thu 11:14:43 PM 29.8369 -95.5875 61° Northeast 286 329 8,100 -1,574 Descending Houston Center
Thu 11:15:15 PM 29.8531 -95.5542 61° Northeast 290 334 7,500 -1,527 Descending Houston Center
Thu 11:15:38 PM 29.8742 -95.5131 59° Northeast 287 330 6,700 -1,377 Descending Houston Center
Thu 11:16:16 PM 29.8922 -95.4750 61° Northeast 286 329 6,100 -700 Descending Houston Center
Thu 11:16:38 PM 29.8961 -95.4311 84° East 276 318 6,000 -98 Descending Houston Center
Thu 11:17:17 PM 29.8967 -95.3864 89° East 277 319 6,000 -98 Level Houston Center
Thu 11:17:39 PM 29.8967 -95.3442 90° East 268 308 5,900  Descending Houston Center
Thu 11:18:18 PM 29.8967 -95.3008 90° East 270 311 6,000 98 Climbing Houston Center
Thu 11:18:40 PM 29.8972 -95.2575 89° East 254 292 6,000  Level Houston Center
Thu 11:19:19 PM 29.8969 -95.2189 90° East 260 299 6,000 -590 Level Houston Center
Thu 11:19:41 PM 29.8961 -95.1781 91° East 240 276 5,400 -1,672 Descending Houston Center
Thu 11:20:20 PM 29.8978 -95.1306 88° East 235 270 4,300 -1,700 Descending Houston Center
Thu 11:20:41 PM 29.9089 -95.1136 53° Northeast 206 237 3,700 -1,574 Descending Houston Center
Thu 11:21:21 PM 29.9450 -95.1108 North 208 239 2,700 -1,574 Descending Houston Center
Thu 11:21:42 PM 29.9569 -95.1319 303° West 202 232 2,100 -1,180 Descending Houston Center
Thu 11:22:22 PM 29.9722 -95.1725 294° West 215 247 1,500 -590 Descending Houston Center
Thu 11:22:43 PM 29.9775 -95.1944 286° West 215 247 1,500 -366 Level Houston Center
Thu 11:23:44 PM 29.9761 -95.2503 268° West 153 176 1,000 -492 Descending Houston Center

Login

Don't have an account? Register now (free) for customized features, flight alerts, and more!